createdAt,value
2023-04-28T00:00:13.650Z,10.03
2023-04-28T00:02:17.178Z,5.60
2023-04-28T00:04:20.258Z,10.00
2023-04-28T00:06:23.409Z,9.77
2023-04-28T00:08:27.303Z,9.70
2023-04-28T00:10:31.832Z,11.17
2023-04-28T00:12:34.611Z,13.63
2023-04-28T00:14:37.370Z,5.90
2023-04-28T00:16:40.378Z,4.10
2023-04-28T00:18:43.416Z,5.93
2023-04-28T00:20:46.192Z,6.47
2023-04-28T00:22:49.510Z,7.23
2023-04-28T00:24:52.353Z,8.80
2023-04-28T00:26:57.361Z,10.30
2023-04-28T00:29:00.262Z,10.63
2023-04-28T00:31:03.156Z,11.33
2023-04-28T00:33:06.028Z,12.37
2023-04-28T00:35:09.442Z,6.27
2023-04-28T00:37:12.329Z,7.30
2023-04-28T00:39:15.100Z,9.97
2023-04-28T00:41:17.907Z,9.80
2023-04-28T00:43:22.043Z,10.03
2023-04-28T00:45:24.858Z,5.70
2023-04-28T00:47:27.662Z,10.73
2023-04-28T00:49:30.780Z,11.30
2023-04-28T00:51:34.324Z,8.23
2023-04-28T00:53:37.088Z,8.07
2023-04-28T00:55:39.858Z,15.37
2023-04-28T00:57:42.699Z,11.43
2023-04-28T00:59:46.819Z,8.23
2023-04-28T01:01:50.001Z,5.83
2023-04-28T01:03:53.090Z,14.23
2023-04-28T01:05:56.075Z,7.03
2023-04-28T01:07:58.861Z,13.70
2023-04-28T01:10:01.625Z,12.17
2023-04-28T01:12:04.550Z,9.90
2023-04-28T01:14:07.683Z,7.90
2023-04-28T01:16:12.167Z,11.30
2023-04-28T01:18:15.014Z,8.17
2023-04-28T01:20:17.873Z,7.13
2023-04-28T01:22:20.684Z,8.40
2023-04-28T01:24:24.811Z,9.00
2023-04-28T01:26:27.649Z,7.27
2023-04-28T01:28:30.437Z,5.60
2023-04-28T01:30:33.203Z,8.77
2023-04-28T01:32:36.116Z,6.00
2023-04-28T01:34:38.901Z,10.43
2023-04-28T01:36:41.666Z,9.00
2023-04-28T01:38:44.502Z,12.03
2023-04-28T01:40:48.604Z,8.93
2023-04-28T01:42:51.477Z,8.73
2023-04-28T01:44:54.248Z,9.47
2023-04-28T01:46:57.017Z,10.20
2023-04-28T01:48:59.806Z,5.70
2023-04-28T01:51:02.640Z,11.70
2023-04-28T01:53:05.427Z,13.43
2023-04-28T01:55:08.884Z,11.90
2023-04-28T01:57:13.005Z,7.30
2023-04-28T01:59:16.157Z,8.17
2023-04-28T02:01:18.951Z,8.10
2023-04-28T02:03:21.971Z,10.60
2023-04-28T02:05:24.979Z,11.23
2023-04-28T02:07:27.789Z,10.93
2023-04-28T02:09:30.600Z,10.93
2023-04-28T02:11:33.355Z,9.30
2023-04-28T02:13:37.507Z,11.23
2023-04-28T02:15:41.356Z,10.50
2023-04-28T02:17:44.195Z,9.57
2023-04-28T02:19:46.995Z,13.10
2023-04-28T02:21:49.756Z,6.83
2023-04-28T02:23:52.523Z,9.87
2023-04-28T02:26:03.598Z,11.47
2023-04-28T02:28:06.386Z,9.90
2023-04-28T02:30:11.269Z,7.80
2023-04-28T02:32:14.026Z,10.00
2023-04-28T02:34:17.038Z,12.37
2023-04-28T02:36:19.953Z,10.47
2023-04-28T02:38:22.728Z,7.37
2023-04-28T02:40:25.470Z,8.20
2023-04-28T02:42:28.209Z,9.10
2023-04-28T02:44:30.960Z,11.13
2023-04-28T02:46:35.088Z,8.93
2023-04-28T02:48:37.858Z,9.53
2023-04-28T02:50:40.634Z,7.33
2023-04-28T02:52:43.384Z,9.47
2023-04-28T02:54:48.865Z,9.57
2023-04-28T02:56:51.616Z,8.33
2023-04-28T02:58:54.367Z,12.37
2023-04-28T03:00:57.261Z,8.43
2023-04-28T03:03:02.077Z,13.63
2023-04-28T03:05:05.282Z,10.77
2023-04-28T03:07:08.175Z,9.20
2023-04-28T03:09:11.347Z,6.57
2023-04-28T03:11:14.214Z,12.60
2023-04-28T03:13:16.998Z,12.30
2023-04-28T03:15:19.727Z,10.60
2023-04-28T03:17:22.527Z,11.27
2023-04-28T03:19:27.206Z,10.67
2023-04-28T03:21:29.952Z,11.93
2023-04-28T03:23:32.728Z,12.13
2023-04-28T03:25:35.487Z,11.07
2023-04-28T03:27:38.253Z,16.53
2023-04-28T03:29:41.054Z,12.53
2023-04-28T03:31:43.862Z,12.53
2023-04-28T03:33:47.161Z,6.83
2023-04-28T03:35:51.273Z,14.57
2023-04-28T03:37:54.028Z,12.93
2023-04-28T03:39:56.809Z,8.77
2023-04-28T03:41:59.584Z,9.17
2023-04-28T03:44:02.373Z,9.80
2023-04-28T03:46:05.704Z,14.03
2023-04-28T03:48:08.692Z,16.07
2023-04-28T03:50:11.920Z,9.35
2023-04-28T03:52:16.026Z,15.90
2023-04-28T03:54:18.826Z,14.70
2023-04-28T03:56:21.848Z,11.77
2023-04-28T03:58:24.626Z,12.63
2023-04-28T04:00:27.473Z,22.63
2023-04-28T04:02:30.350Z,10.60
2023-04-28T04:04:33.349Z,11.57
2023-04-28T04:06:36.234Z,9.40
2023-04-28T04:08:40.362Z,14.20
2023-04-28T04:10:43.127Z,12.40
2023-04-28T04:12:45.945Z,9.90
2023-04-28T04:14:48.804Z,14.13
2023-04-28T04:16:51.552Z,10.07
2023-04-28T04:18:54.319Z,15.87
2023-04-28T04:20:57.314Z,14.63
2023-04-28T04:23:00.130Z,16.40
2023-04-28T04:25:04.352Z,12.00
2023-04-28T04:27:07.119Z,11.00
2023-04-28T04:29:09.936Z,11.90
2023-04-28T04:31:12.896Z,8.93
2023-04-28T04:33:16.384Z,10.83
2023-04-28T04:35:19.144Z,12.60
2023-04-28T04:37:21.898Z,20.30
2023-04-28T04:39:24.684Z,10.90
2023-04-28T04:41:28.811Z,14.37
2023-04-28T04:43:31.596Z,17.00
2023-04-28T04:45:35.387Z,12.67
2023-04-28T04:47:38.242Z,16.57
2023-04-28T04:49:41.142Z,9.40
2023-04-28T04:51:44.098Z,14.70
2023-04-28T04:53:46.876Z,9.30
2023-04-28T04:55:49.659Z,14.13
2023-04-28T04:57:53.806Z,15.53
2023-04-28T04:59:56.610Z,12.57
2023-04-28T05:01:59.408Z,10.53
2023-04-28T05:04:02.388Z,12.23
2023-04-28T05:06:05.368Z,11.60
2023-04-28T05:08:08.160Z,8.40
2023-04-28T05:10:11.618Z,13.93
2023-04-28T05:12:14.409Z,10.93
2023-04-28T05:14:18.698Z,10.13
2023-04-28T05:16:21.618Z,12.33
2023-04-28T05:18:24.430Z,8.23
2023-04-28T05:20:27.202Z,12.20
2023-04-28T05:22:31.227Z,8.47
2023-04-28T05:24:34.005Z,14.03
2023-04-28T05:26:36.992Z,10.23
2023-04-28T05:28:40.751Z,8.80
2023-04-28T05:30:45.666Z,12.27
2023-04-28T05:32:48.466Z,12.10
2023-04-28T05:34:51.237Z,8.40
2023-04-28T05:36:54.052Z,10.37
2023-04-28T05:38:56.859Z,12.40
2023-04-28T05:40:59.626Z,12.03
2023-04-28T05:43:02.407Z,21.50
2023-04-28T05:45:05.902Z,14.93
2023-04-28T05:47:10.125Z,13.83
2023-04-28T05:49:12.932Z,21.23
2023-04-28T05:51:15.859Z,12.30
2023-04-28T05:53:18.715Z,15.80
2023-04-28T05:55:21.993Z,10.00
2023-04-28T05:57:24.763Z,12.40
2023-04-28T05:59:28.502Z,12.13
2023-04-28T06:01:31.378Z,11.50
2023-04-28T06:03:35.975Z,13.40
2023-04-28T06:05:39.124Z,18.40
2023-04-28T06:07:42.084Z,29.50
2023-04-28T06:09:44.996Z,14.07
2023-04-28T06:11:47.742Z,25.23
2023-04-28T06:13:50.921Z,14.90
2023-04-28T06:15:53.730Z,9.97
2023-04-28T06:17:56.613Z,13.27
2023-04-28T06:20:00.721Z,14.27
2023-04-28T06:22:03.427Z,11.40
2023-04-28T06:24:06.672Z,15.90
2023-04-28T06:26:09.413Z,12.53
2023-04-28T06:28:13.392Z,11.47
2023-04-28T06:30:18.696Z,10.23
2023-04-28T06:32:21.451Z,15.33
2023-04-28T06:34:27.157Z,19.73
2023-04-28T06:36:31.348Z,12.33
2023-04-28T06:38:34.096Z,11.03
2023-04-28T06:40:36.812Z,17.20
2023-04-28T06:42:39.865Z,14.47
2023-04-28T06:44:42.705Z,16.80
2023-04-28T06:46:45.507Z,18.83
2023-04-28T06:48:48.247Z,12.53
2023-04-28T06:50:51.019Z,15.40
2023-04-28T06:52:55.069Z,13.10
2023-04-28T06:54:57.853Z,21.50
2023-04-28T06:57:00.576Z,13.10
2023-04-28T06:59:03.326Z,14.27
2023-04-28T07:01:06.214Z,17.37
2023-04-28T07:03:09.434Z,17.93
2023-04-28T07:05:14.088Z,20.80
2023-04-28T07:07:18.161Z,11.30
2023-04-28T07:09:22.221Z,16.87
2023-04-28T07:11:24.918Z,14.80
2023-04-28T07:13:27.659Z,15.70
2023-04-28T07:15:31.352Z,14.57
2023-04-28T07:17:34.154Z,12.00
2023-04-28T07:19:36.894Z,13.83
2023-04-28T07:21:39.607Z,19.63
2023-04-28T07:23:43.196Z,16.50
2023-04-28T07:25:47.243Z,11.53
2023-04-28T07:27:50.232Z,15.03
2023-04-28T07:29:52.955Z,18.13
2023-04-28T07:31:55.809Z,13.60
2023-04-28T07:33:58.588Z,16.20
2023-04-28T07:36:01.292Z,16.30
2023-04-28T07:38:04.106Z,12.30
2023-04-28T07:40:08.038Z,13.53
2023-04-28T07:42:12.291Z,13.33
2023-04-28T07:44:15.243Z,19.40
2023-04-28T07:46:18.122Z,15.63
2023-04-28T07:48:20.909Z,8.67
2023-04-28T07:50:23.813Z,16.70
2023-04-28T07:52:26.553Z,14.77
2023-04-28T07:54:29.293Z,15.43
2023-04-28T07:56:32.231Z,13.07
2023-04-28T07:58:36.288Z,24.80
2023-04-28T08:00:40.847Z,27.97
2023-04-28T08:02:43.935Z,15.77
2023-04-28T08:04:47.040Z,16.40
2023-04-28T08:06:49.890Z,17.20
2023-04-28T08:08:52.680Z,22.87
2023-04-28T08:10:55.438Z,15.77
2023-04-28T08:12:58.358Z,19.23
2023-04-28T08:15:02.484Z,19.03
2023-04-28T08:17:05.242Z,18.43
2023-04-28T08:19:08.358Z,16.43
2023-04-28T08:21:11.162Z,21.20
2023-04-28T08:23:13.947Z,24.50
2023-04-28T08:25:18.441Z,18.50
2023-04-28T08:27:21.206Z,15.03
2023-04-28T08:29:23.997Z,17.17
2023-04-28T08:31:28.159Z,14.23
2023-04-28T08:33:30.972Z,23.23
2023-04-28T08:35:33.801Z,34.20
2023-04-28T08:37:36.799Z,22.43
2023-04-28T08:39:39.565Z,16.57
2023-04-28T08:41:42.325Z,17.53
2023-04-28T08:43:45.621Z,22.10
2023-04-28T08:45:48.457Z,15.40
2023-04-28T08:47:52.766Z,14.57
2023-04-28T08:49:55.730Z,17.17
2023-04-28T08:52:00.536Z,22.20
2023-04-28T08:54:24.872Z,32.87
2023-04-28T08:56:27.876Z,16.27
2023-04-28T08:58:30.680Z,27.57
2023-04-28T09:00:33.452Z,18.70
2023-04-28T09:02:37.931Z,17.53
2023-04-28T09:04:42.476Z,12.07
2023-04-28T09:06:46.107Z,23.97
2023-04-28T09:08:48.914Z,16.57
2023-04-28T09:10:59.516Z,20.07
2023-04-28T09:13:02.318Z,22.53
2023-04-28T09:15:09.602Z,20.17
2023-04-28T09:17:13.385Z,12.97
2023-04-28T09:19:16.393Z,25.80
2023-04-28T09:21:20.501Z,25.33
2023-04-28T09:23:23.459Z,23.63
2023-04-28T09:25:27.925Z,20.90
2023-04-28T09:27:30.705Z,16.10
2023-04-28T09:29:33.468Z,16.00
2023-04-28T09:31:40.637Z,18.30
2023-04-28T09:33:57.272Z,20.00
2023-04-28T09:36:00.060Z,99.50
2023-04-28T09:38:04.175Z,39.03
2023-04-28T09:40:08.482Z,20.40
2023-04-28T09:42:11.275Z,15.73
2023-04-28T09:44:15.677Z,15.60
2023-04-28T09:46:19.270Z,18.77
2023-04-28T09:48:28.727Z,15.70
2023-04-28T09:50:40.787Z,19.33
2023-04-28T09:52:44.278Z,20.47
2023-04-28T09:54:49.607Z,16.93
2023-04-28T09:56:52.360Z,20.60
2023-04-28T09:58:55.158Z,22.47
2023-04-28T10:00:58.812Z,17.70
2023-04-28T10:03:02.113Z,20.47
2023-04-28T10:05:05.539Z,14.70
2023-04-28T10:07:08.904Z,28.53
2023-04-28T10:09:14.024Z,16.30
2023-04-28T10:11:18.201Z,21.83
2023-04-28T10:13:21.267Z,20.50
2023-04-28T10:15:24.286Z,15.27
2023-04-28T10:17:27.362Z,22.63
2023-04-28T10:19:30.397Z,20.70
2023-04-28T10:21:33.520Z,20.33
2023-04-28T10:23:52.305Z,14.10
2023-04-28T10:25:58.151Z,21.50
2023-04-28T10:28:02.337Z,15.20
2023-04-28T10:30:22.931Z,20.20
2023-04-28T10:32:30.909Z,22.17
2023-04-28T10:34:33.720Z,21.80
2023-04-28T10:36:49.122Z,20.97
2023-04-28T10:39:10.838Z,16.60
2023-04-28T10:41:32.588Z,22.17
2023-04-28T10:43:39.360Z,20.53
2023-04-28T10:46:01.294Z,14.37
2023-04-28T10:48:06.368Z,20.33
2023-04-28T10:50:09.787Z,17.90
2023-04-28T10:52:44.192Z,21.00
2023-04-28T10:55:19.295Z,19.17
2023-04-28T10:57:24.482Z,24.63
2023-04-28T10:59:29.990Z,20.80
2023-04-28T11:01:34.824Z,23.50
2023-04-28T11:03:46.619Z,19.83
2023-04-28T11:06:19.146Z,15.10
2023-04-28T11:08:36.872Z,18.13
2023-04-28T11:11:17.145Z,24.30
2023-04-28T11:13:33.949Z,22.23
2023-04-28T11:15:39.047Z,17.73
2023-04-28T11:17:42.534Z,22.60
2023-04-28T11:19:46.114Z,17.63
2023-04-28T11:21:49.076Z,21.67
2023-04-28T11:23:51.851Z,20.60
2023-04-28T11:25:55.151Z,17.70
2023-04-28T11:28:04.842Z,14.87
2023-04-28T11:30:22.241Z,17.47
2023-04-28T11:32:29.974Z,14.53
2023-04-28T11:34:33.003Z,17.97
2023-04-28T11:36:37.390Z,21.23
2023-04-28T11:38:47.023Z,18.47
2023-04-28T11:40:58.783Z,15.70
2023-04-28T11:43:03.984Z,18.23
2023-04-28T11:45:08.066Z,16.93
2023-04-28T11:47:10.940Z,21.13
2023-04-28T11:49:15.381Z,20.63
2023-04-28T11:51:38.053Z,19.03
2023-04-28T11:53:43.923Z,21.43
2023-04-28T11:55:46.797Z,21.73
2023-04-28T11:57:49.572Z,16.53
2023-04-28T11:59:52.388Z,16.90
2023-04-28T12:01:56.907Z,19.37
2023-04-28T12:04:00.152Z,16.47
2023-04-28T12:06:04.763Z,14.20
2023-04-28T12:08:07.572Z,27.67
2023-04-28T12:10:15.687Z,16.60
2023-04-28T12:12:40.055Z,17.83
2023-04-28T12:14:56.042Z,23.83
2023-04-28T12:16:58.884Z,17.77
2023-04-28T12:19:02.511Z,18.00
2023-04-28T12:21:06.864Z,16.60
2023-04-28T12:23:09.700Z,28.57
2023-04-28T12:25:13.483Z,25.00
2023-04-28T12:27:17.210Z,22.80
2023-04-28T12:29:40.177Z,18.53
2023-04-28T12:31:50.396Z,21.93
2023-04-28T12:33:53.532Z,22.30
2023-04-28T12:35:57.013Z,19.80
2023-04-28T12:38:01.143Z,16.87
2023-04-28T12:40:04.611Z,19.70
2023-04-28T12:42:07.950Z,20.63
2023-04-28T12:44:10.767Z,24.43
2023-04-28T12:46:14.803Z,22.67
2023-04-28T12:48:17.620Z,19.00
2023-04-28T12:50:20.743Z,23.20
2023-04-28T12:52:23.808Z,19.67
2023-04-28T12:54:27.918Z,26.00
2023-04-28T12:56:30.674Z,21.40
2023-04-28T12:58:33.475Z,19.10
2023-04-28T13:00:36.295Z,18.63
2023-04-28T13:02:39.233Z,24.47
2023-04-28T13:04:42.931Z,23.60
2023-04-28T13:06:46.460Z,26.27
2023-04-28T13:08:49.321Z,21.57
2023-04-28T13:10:53.456Z,21.30
2023-04-28T13:12:56.258Z,24.23
2023-04-28T13:14:59.038Z,19.70
2023-04-28T13:17:03.364Z,26.23
2023-04-28T13:19:09.542Z,22.20
2023-04-28T13:21:12.738Z,20.83
2023-04-28T13:23:15.529Z,23.47
2023-04-28T13:25:18.318Z,21.07
2023-04-28T13:27:22.425Z,26.70
2023-04-28T13:29:25.205Z,21.10
2023-04-28T13:31:28.135Z,24.90
2023-04-28T13:33:31.331Z,22.80
2023-04-28T13:35:34.156Z,28.63
2023-04-28T13:37:42.469Z,23.70
2023-04-28T13:39:45.263Z,22.67
2023-04-28T13:41:48.912Z,21.67
2023-04-28T13:43:53.714Z,31.50
2023-04-28T13:45:56.493Z,32.17
2023-04-28T13:47:59.413Z,26.83
2023-04-28T13:50:02.240Z,21.97
2023-04-28T13:52:05.053Z,24.57
2023-04-28T13:54:10.517Z,22.30
2023-04-28T13:56:13.290Z,26.80
2023-04-28T13:58:16.169Z,23.60
2023-04-28T14:00:21.320Z,26.07
2023-04-28T14:02:24.616Z,23.60
2023-04-28T14:04:27.875Z,25.27
2023-04-28T14:06:31.940Z,31.27
2023-04-28T14:08:36.637Z,24.20
2023-04-28T14:10:39.410Z,21.00
2023-04-28T14:12:42.186Z,26.03
2023-04-28T14:14:47.637Z,20.03
2023-04-28T14:16:51.894Z,27.17
2023-04-28T14:18:55.576Z,25.87
2023-04-28T14:20:58.358Z,16.90
2023-04-28T14:23:01.224Z,18.70
2023-04-28T14:25:04.001Z,20.73
2023-04-28T14:27:07.395Z,20.63
2023-04-28T14:29:10.595Z,29.53
2023-04-28T14:31:13.407Z,26.37
2023-04-28T14:33:17.742Z,23.87
2023-04-28T14:35:21.918Z,27.23
2023-04-28T14:37:24.811Z,18.87
2023-04-28T14:39:27.651Z,23.37
2023-04-28T14:41:30.421Z,23.93
2023-04-28T14:43:33.205Z,26.70
2023-04-28T14:45:37.132Z,18.97
2023-04-28T14:47:40.320Z,23.33
2023-04-28T14:49:45.363Z,23.50
2023-04-28T14:51:48.778Z,21.57
2023-04-28T14:53:51.546Z,29.07
2023-04-28T14:55:59.558Z,23.27
2023-04-28T14:58:10.237Z,21.03
2023-04-28T15:00:14.036Z,19.23
2023-04-28T15:02:16.826Z,22.20
2023-04-28T15:04:19.918Z,27.17
2023-04-28T15:06:24.150Z,24.53
2023-04-28T15:08:29.429Z,18.50
2023-04-28T15:10:38.405Z,21.03
2023-04-28T15:12:41.869Z,16.83
2023-04-28T15:14:44.676Z,24.30
2023-04-28T15:16:47.882Z,15.93
2023-04-28T15:18:50.666Z,17.97
2023-04-28T15:20:53.446Z,13.50
2023-04-28T15:22:57.577Z,15.07
2023-04-28T15:25:00.839Z,19.70
2023-04-28T15:27:04.844Z,23.93
2023-04-28T15:29:07.673Z,19.80
2023-04-28T15:31:10.506Z,16.47
2023-04-28T15:33:17.157Z,16.80
2023-04-28T15:35:20.152Z,14.20
2023-04-28T15:37:40.315Z,25.60
2023-04-28T15:39:44.805Z,17.83
2023-04-28T15:41:47.693Z,24.50
2023-04-28T15:43:50.710Z,18.90
2023-04-28T15:45:53.564Z,14.30
2023-04-28T15:47:56.401Z,16.80
2023-04-28T15:49:59.554Z,20.40
2023-04-28T15:52:02.332Z,29.10
2023-04-28T15:54:05.330Z,17.57
2023-04-28T15:56:09.478Z,15.60
2023-04-28T15:58:12.244Z,16.87
2023-04-28T16:00:15.979Z,23.47
2023-04-28T16:02:18.947Z,24.80
2023-04-28T16:04:22.203Z,17.60
2023-04-28T16:06:25.498Z,26.63
2023-04-28T16:08:29.353Z,24.10
2023-04-28T16:10:32.155Z,24.37
2023-04-28T16:12:36.276Z,23.15
2023-04-28T16:14:39.063Z,29.43
2023-04-28T16:16:42.116Z,23.80
2023-04-28T16:18:45.056Z,22.63
2023-04-28T16:20:47.853Z,20.17
2023-04-28T16:22:50.634Z,22.63
2023-04-28T16:24:53.787Z,22.20
2023-04-28T16:26:56.742Z,22.07
2023-04-28T16:29:00.947Z,20.37
2023-04-28T16:31:03.748Z,22.70
2023-04-28T16:33:06.538Z,19.80
2023-04-28T16:35:15.209Z,23.50
2023-04-28T16:37:18.128Z,19.60
2023-04-28T16:39:21.302Z,22.93
2023-04-28T16:41:24.123Z,31.33
2023-04-28T16:43:26.899Z,25.13
2023-04-28T16:45:31.715Z,21.50
2023-04-28T16:47:34.503Z,26.70
2023-04-28T16:49:37.281Z,23.90
2023-04-28T16:51:40.061Z,21.53
2023-04-28T16:53:42.906Z,24.87
2023-04-28T16:55:45.888Z,27.67
2023-04-28T16:57:48.687Z,23.83
2023-04-28T16:59:52.150Z,26.27
2023-04-28T17:01:56.548Z,22.20
2023-04-28T17:03:59.397Z,24.50
2023-04-28T17:06:02.430Z,29.27
2023-04-28T17:08:05.264Z,25.33
2023-04-28T17:10:09.068Z,27.33
2023-04-28T17:12:11.818Z,24.97
2023-04-28T17:14:14.692Z,21.13
2023-04-28T17:16:17.532Z,23.80
2023-04-28T17:18:21.725Z,21.60
2023-04-28T17:20:24.629Z,22.77
2023-04-28T17:22:27.708Z,22.63
2023-04-28T17:24:30.509Z,22.63
2023-04-28T17:26:33.281Z,23.13
2023-04-28T17:28:36.045Z,25.63
2023-04-28T17:30:39.165Z,21.07
2023-04-28T17:32:43.491Z,22.57
2023-04-28T17:34:48.087Z,27.10
2023-04-28T17:36:50.886Z,22.33
2023-04-28T17:38:53.666Z,23.17
2023-04-28T17:40:56.753Z,23.37
2023-04-28T17:42:59.545Z,23.40
2023-04-28T17:45:02.413Z,25.23
2023-04-28T17:47:05.253Z,25.47
2023-04-28T17:49:08.617Z,26.90
2023-04-28T17:51:12.753Z,29.73
2023-04-28T17:53:15.927Z,27.73
2023-04-28T17:55:18.882Z,23.10
2023-04-28T17:57:21.694Z,29.30
2023-04-28T17:59:24.482Z,30.13
2023-04-28T18:01:27.564Z,32.13
2023-04-28T18:03:30.925Z,28.87
2023-04-28T18:05:35.390Z,29.50
2023-04-28T18:07:40.298Z,28.97
2023-04-28T18:09:43.110Z,27.73
2023-04-28T18:11:45.868Z,27.60
2023-04-28T18:13:48.630Z,25.07
2023-04-28T18:15:51.731Z,27.07
2023-04-28T18:17:54.508Z,30.83
2023-04-28T18:19:57.821Z,32.07
2023-04-28T18:22:00.937Z,28.40
2023-04-28T18:24:05.280Z,25.70
2023-04-28T18:26:08.608Z,28.00
2023-04-28T18:28:11.445Z,26.20
2023-04-28T18:30:14.529Z,31.13
2023-04-28T18:32:17.298Z,34.27
2023-04-28T18:34:20.041Z,38.30
2023-04-28T18:36:22.801Z,29.83
2023-04-28T18:38:26.133Z,31.17
2023-04-28T18:40:34.348Z,33.97
2023-04-28T18:42:37.146Z,28.50
2023-04-28T18:44:40.875Z,28.63
2023-04-28T18:46:43.659Z,27.27
2023-04-28T18:48:47.258Z,35.23
2023-04-28T18:50:50.066Z,35.33
2023-04-28T18:52:52.838Z,35.80
2023-04-28T18:54:55.629Z,29.93
2023-04-28T18:56:59.798Z,31.47
2023-04-28T18:59:04.177Z,40.13
2023-04-28T19:01:07.024Z,33.97
2023-04-28T19:03:09.956Z,37.30
2023-04-28T19:05:13.122Z,34.50
2023-04-28T19:07:16.017Z,33.67
2023-04-28T19:09:18.777Z,36.17
2023-04-28T19:11:21.497Z,41.47
2023-04-28T19:13:25.697Z,33.77
2023-04-28T19:15:28.467Z,32.10
2023-04-28T19:17:31.669Z,38.83
2023-04-28T19:19:35.007Z,35.53
2023-04-28T19:21:43.124Z,34.83
2023-04-28T19:23:46.153Z,36.43
2023-04-28T19:25:48.995Z,44.40
2023-04-28T19:27:51.803Z,41.13
2023-04-28T19:29:56.737Z,37.60
2023-04-28T19:31:59.497Z,43.23
2023-04-28T19:34:02.333Z,40.40
2023-04-28T19:36:05.944Z,44.10
2023-04-28T19:38:09.501Z,37.33
2023-04-28T19:40:13.454Z,35.30
2023-04-28T19:42:16.218Z,33.77
2023-04-28T19:44:18.999Z,35.77
2023-04-28T19:46:23.173Z,41.43
2023-04-28T19:48:26.814Z,39.90
2023-04-28T19:50:29.588Z,30.60
2023-04-28T19:52:32.346Z,35.73
2023-04-28T19:54:35.125Z,32.27
2023-04-28T19:56:37.915Z,34.30
2023-04-28T19:58:41.033Z,34.80
2023-04-28T20:00:43.802Z,36.77
2023-04-28T20:02:47.996Z,39.27
2023-04-28T20:04:50.872Z,37.93
2023-04-28T20:06:53.630Z,37.37
2023-04-28T20:08:56.382Z,37.37
2023-04-28T20:10:59.158Z,48.53
2023-04-28T20:13:02.157Z,42.77
2023-04-28T20:15:05.489Z,42.10
2023-04-28T20:17:09.044Z,40.57
2023-04-28T20:19:13.185Z,41.20
2023-04-28T20:21:15.948Z,43.57
2023-04-28T20:23:18.703Z,44.00
2023-04-28T20:25:22.719Z,42.40
2023-04-28T20:27:25.466Z,46.70
2023-04-28T20:29:31.151Z,42.07
2023-04-28T20:31:33.917Z,43.10
2023-04-28T20:33:36.672Z,41.00
2023-04-28T20:35:40.777Z,39.93
2023-04-28T20:37:43.545Z,35.67
2023-04-28T20:39:47.112Z,35.90
2023-04-28T20:41:49.856Z,29.43
2023-04-28T20:43:54.397Z,24.40
2023-04-28T20:45:57.727Z,28.20
2023-04-28T20:48:00.544Z,24.53
2023-04-28T20:50:03.611Z,25.90
2023-04-28T20:52:07.696Z,28.37
2023-04-28T20:54:10.479Z,24.60
2023-04-28T20:56:13.232Z,24.57
2023-04-28T20:58:16.225Z,24.43
2023-04-28T21:00:19.018Z,21.90
2023-04-28T21:02:21.860Z,24.93
2023-04-28T21:04:24.686Z,21.40
2023-04-28T21:06:27.450Z,22.33
2023-04-28T21:08:31.534Z,23.95
2023-04-28T21:10:34.382Z,24.87
2023-04-28T21:12:37.171Z,19.47
2023-04-28T21:14:40.285Z,20.60
2023-04-28T21:16:43.363Z,20.23
2023-04-28T21:18:46.811Z,18.00
2023-04-28T21:20:51.032Z,20.73
2023-04-28T21:22:53.771Z,14.87
2023-04-28T21:24:58.100Z,17.03
2023-04-28T21:27:02.848Z,17.87
2023-04-28T21:29:05.671Z,18.20
2023-04-28T21:31:08.418Z,18.23
2023-04-28T21:33:11.304Z,21.67
2023-04-28T21:35:14.324Z,16.80
2023-04-28T21:37:17.063Z,20.10
2023-04-28T21:39:19.820Z,19.07
2023-04-28T21:41:25.202Z,21.20
2023-04-28T21:43:27.953Z,17.97
2023-04-28T21:45:30.716Z,20.00
2023-04-28T21:47:33.496Z,21.80
2023-04-28T21:49:36.270Z,17.23
2023-04-28T21:51:42.113Z,16.93
2023-04-28T21:53:44.855Z,15.40
2023-04-28T21:55:47.886Z,19.17
2023-04-28T21:57:53.999Z,19.10
2023-04-28T21:59:57.033Z,19.50
2023-04-28T22:01:59.976Z,16.70
2023-04-28T22:04:03.739Z,19.70
2023-04-28T22:06:06.892Z,19.40
2023-04-28T22:08:09.714Z,22.30
2023-04-28T22:10:13.120Z,21.80
2023-04-28T22:12:15.961Z,18.70
2023-04-28T22:14:38.865Z,19.83
2023-04-28T22:16:42.858Z,21.10
2023-04-28T22:18:45.621Z,18.07
2023-04-28T22:20:50.064Z,23.60
2023-04-28T22:22:53.907Z,23.23
2023-04-28T22:24:56.709Z,23.07
2023-04-28T22:26:59.681Z,26.47
2023-04-28T22:29:02.573Z,22.83
2023-04-28T22:31:06.857Z,25.50
2023-04-28T22:33:10.240Z,26.60
2023-04-28T22:35:13.170Z,25.57
2023-04-28T22:37:15.930Z,25.20
2023-04-28T22:39:18.695Z,29.20
2023-04-28T22:41:21.459Z,25.50
2023-04-28T22:43:24.206Z,25.80
2023-04-28T22:45:27.230Z,27.90
2023-04-28T22:47:31.503Z,29.73
2023-04-28T22:49:34.398Z,28.33
2023-04-28T22:51:37.182Z,27.00
2023-04-28T22:53:39.963Z,27.33
2023-04-28T22:55:43.398Z,28.33
2023-04-28T22:57:46.230Z,31.97
2023-04-28T22:59:49.223Z,29.70
2023-04-28T23:01:53.265Z,31.07
2023-04-28T23:03:57.702Z,31.57
2023-04-28T23:06:00.669Z,36.17
2023-04-28T23:08:03.436Z,28.87
2023-04-28T23:10:07.598Z,30.07
2023-04-28T23:12:10.400Z,33.37
2023-04-28T23:14:13.194Z,33.30
2023-04-28T23:16:16.011Z,32.40
2023-04-28T23:18:18.830Z,35.13
2023-04-28T23:20:23.046Z,37.20
2023-04-28T23:22:25.813Z,36.30
2023-04-28T23:24:28.591Z,38.60
2023-04-28T23:26:31.346Z,44.03
2023-04-28T23:28:34.127Z,48.10
2023-04-28T23:30:36.953Z,46.60
2023-04-28T23:32:39.809Z,56.77
2023-04-28T23:34:42.797Z,50.03
2023-04-28T23:36:47.049Z,53.10
2023-04-28T23:38:50.126Z,51.20
2023-04-28T23:40:52.927Z,47.00
2023-04-28T23:42:55.716Z,54.20
2023-04-28T23:44:59.112Z,51.43
2023-04-28T23:47:01.900Z,56.00
2023-04-28T23:49:04.767Z,58.33
2023-04-28T23:51:07.622Z,68.50
2023-04-28T23:53:11.728Z,73.97
2023-04-28T23:55:14.579Z,75.87
2023-04-28T23:57:17.355Z,74.73
2023-04-28T23:59:20.208Z,75.17
